sensor_id;sensor_type;location;lat;lon;timestamp;P1;durP1;ratioP1;P2;durP2;ratioP2
43154;SDS011;34212;51.018;13.586;2022-11-15T00:02:00;22.70;;;15.43;;
43154;SDS011;34212;51.018;13.586;2022-11-15T00:07:20;22.27;;;14.65;;
43154;SDS011;34212;51.018;13.586;2022-11-15T00:13:03;21.58;;;14.70;;
43154;SDS011;34212;51.018;13.586;2022-11-15T00:18:24;22.83;;;14.35;;
43154;SDS011;34212;51.018;13.586;2022-11-15T00:23:45;24.00;;;14.82;;
43154;SDS011;34212;51.018;13.586;2022-11-15T00:29:05;22.25;;;14.50;;
43154;SDS011;34212;51.018;13.586;2022-11-15T00:34:25;23.05;;;15.25;;
43154;SDS011;34212;51.018;13.586;2022-11-15T00:39:45;23.58;;;14.60;;
43154;SDS011;34212;51.018;13.586;2022-11-15T00:45:05;21.60;;;13.07;;
43154;SDS011;34212;51.018;13.586;2022-11-15T00:50:26;18.85;;;13.10;;
43154;SDS011;34212;51.018;13.586;2022-11-15T00:55:46;20.85;;;13.57;;
43154;SDS011;34212;51.018;13.586;2022-11-15T01:01:07;19.70;;;13.20;;
43154;SDS011;34212;51.018;13.586;2022-11-15T01:06:32;19.42;;;12.60;;
43154;SDS011;34212;51.018;13.586;2022-11-15T01:11:52;18.90;;;11.93;;
43154;SDS011;34212;51.018;13.586;2022-11-15T01:17:12;17.40;;;11.98;;
43154;SDS011;34212;51.018;13.586;2022-11-15T01:22:32;19.67;;;11.25;;
43154;SDS011;34212;51.018;13.586;2022-11-15T01:27:52;16.73;;;11.32;;
43154;SDS011;34212;51.018;13.586;2022-11-15T01:33:12;17.63;;;10.98;;
43154;SDS011;34212;51.018;13.586;2022-11-15T01:38:32;17.27;;;10.35;;
43154;SDS011;34212;51.018;13.586;2022-11-15T01:43:53;18.45;;;10.63;;
43154;SDS011;34212;51.018;13.586;2022-11-15T01:49:17;16.58;;;10.35;;
43154;SDS011;34212;51.018;13.586;2022-11-15T01:54:39;18.25;;;10.70;;
43154;SDS011;34212;51.018;13.586;2022-11-15T02:00:00;17.50;;;11.02;;
43154;SDS011;34212;51.018;13.586;2022-11-15T02:05:23;18.55;;;11.23;;
43154;SDS011;34212;51.018;13.586;2022-11-15T02:10:43;16.48;;;10.95;;
43154;SDS011;34212;51.018;13.586;2022-11-15T02:44:07;17.45;;;10.90;;
43154;SDS011;34212;51.018;13.586;2022-11-15T02:49:34;16.33;;;9.63;;
43154;SDS011;34212;51.018;13.586;2022-11-15T02:54:55;17.65;;;10.73;;
43154;SDS011;34212;51.018;13.586;2022-11-15T03:00:20;16.20;;;10.10;;
43154;SDS011;34212;51.018;13.586;2022-11-15T03:11:07;18.67;;;10.68;;
43154;SDS011;34212;51.018;13.586;2022-11-15T03:21:57;15.57;;;9.45;;
43154;SDS011;34212;51.018;13.586;2022-11-15T03:27:21;16.60;;;10.43;;
43154;SDS011;34212;51.018;13.586;2022-11-15T03:32:53;16.02;;;10.30;;
43154;SDS011;34212;51.018;13.586;2022-11-15T03:38:19;15.32;;;10.52;;
43154;SDS011;34212;51.018;13.586;2022-11-15T03:43:48;13.73;;;9.10;;
43154;SDS011;34212;51.018;13.586;2022-11-15T03:49:20;14.70;;;9.90;;
43154;SDS011;34212;51.018;13.586;2022-11-15T03:54:55;14.82;;;8.95;;
43154;SDS011;34212;51.018;13.586;2022-11-15T04:00:16;13.32;;;9.18;;
43154;SDS011;34212;51.018;13.586;2022-11-15T04:05:37;15.77;;;9.15;;
43154;SDS011;34212;51.018;13.586;2022-11-15T04:10:57;13.20;;;8.55;;
43154;SDS011;34212;51.018;13.586;2022-11-15T04:16:17;16.25;;;9.32;;
43154;SDS011;34212;51.018;13.586;2022-11-15T04:21:37;14.73;;;7.95;;
43154;SDS011;34212;51.018;13.586;2022-11-15T04:27:16;16.33;;;8.20;;
43154;SDS011;34212;51.018;13.586;2022-11-15T04:32:36;13.57;;;7.95;;
43154;SDS011;34212;51.018;13.586;2022-11-15T04:37:56;13.05;;;8.20;;
43154;SDS011;34212;51.018;13.586;2022-11-15T04:43:17;15.63;;;9.00;;
43154;SDS011;34212;51.018;13.586;2022-11-15T04:48:37;14.35;;;8.15;;
43154;SDS011;34212;51.018;13.586;2022-11-15T04:53:57;11.57;;;7.55;;
43154;SDS011;34212;51.018;13.586;2022-11-15T04:59:17;16.40;;;7.60;;
43154;SDS011;34212;51.018;13.586;2022-11-15T05:04:37;12.77;;;7.60;;
43154;SDS011;34212;51.018;13.586;2022-11-15T05:09:57;11.57;;;7.32;;
43154;SDS011;34212;51.018;13.586;2022-11-15T05:15:17;13.30;;;7.88;;
43154;SDS011;34212;51.018;13.586;2022-11-15T05:20:36;11.98;;;7.43;;
43154;SDS011;34212;51.018;13.586;2022-11-15T05:26:00;13.65;;;7.95;;
43154;SDS011;34212;51.018;13.586;2022-11-15T05:31:27;10.60;;;6.88;;
43154;SDS011;34212;51.018;13.586;2022-11-15T05:36:48;11.13;;;6.57;;
43154;SDS011;34212;51.018;13.586;2022-11-15T05:42:12;11.15;;;6.45;;
43154;SDS011;34212;51.018;13.586;2022-11-15T05:47:33;11.43;;;6.65;;
43154;SDS011;34212;51.018;13.586;2022-11-15T05:52:57;10.85;;;7.10;;
43154;SDS011;34212;51.018;13.586;2022-11-15T05:58:23;12.43;;;6.95;;
43154;SDS011;34212;51.018;13.586;2022-11-15T06:03:43;10.32;;;6.97;;
43154;SDS011;34212;51.018;13.586;2022-11-15T06:09:03;12.43;;;7.47;;
43154;SDS011;34212;51.018;13.586;2022-11-15T06:14:23;10.43;;;6.60;;
43154;SDS011;34212;51.018;13.586;2022-11-15T06:19:44;12.45;;;7.35;;
43154;SDS011;34212;51.018;13.586;2022-11-15T06:25:04;11.38;;;7.03;;
43154;SDS011;34212;51.018;13.586;2022-11-15T06:30:25;10.90;;;7.00;;
43154;SDS011;34212;51.018;13.586;2022-11-15T06:35:47;11.77;;;7.53;;
43154;SDS011;34212;51.018;13.586;2022-11-15T06:41:07;11.05;;;7.35;;
43154;SDS011;34212;51.018;13.586;2022-11-15T06:46:29;11.70;;;6.95;;
43154;SDS011;34212;51.018;13.586;2022-11-15T06:51:49;12.77;;;7.80;;
43154;SDS011;34212;51.018;13.586;2022-11-15T06:57:08;11.85;;;7.88;;
43154;SDS011;34212;51.018;13.586;2022-11-15T07:02:28;11.43;;;7.43;;
43154;SDS011;34212;51.018;13.586;2022-11-15T07:07:55;13.82;;;7.35;;
43154;SDS011;34212;51.018;13.586;2022-11-15T07:13:16;12.23;;;7.47;;
43154;SDS011;34212;51.018;13.586;2022-11-15T07:18:36;19.73;;;10.82;;
43154;SDS011;34212;51.018;13.586;2022-11-15T07:23:58;14.93;;;9.48;;
43154;SDS011;34212;51.018;13.586;2022-11-15T07:29:18;15.65;;;9.45;;
43154;SDS011;34212;51.018;13.586;2022-11-15T07:34:37;14.93;;;8.95;;
43154;SDS011;34212;51.018;13.586;2022-11-15T07:39:57;17.65;;;10.07;;
43154;SDS011;34212;51.018;13.586;2022-11-15T07:45:18;17.05;;;10.32;;
43154;SDS011;34212;51.018;13.586;2022-11-15T07:50:41;17.92;;;11.35;;
43154;SDS011;34212;51.018;13.586;2022-11-15T07:56:02;22.50;;;12.63;;
43154;SDS011;34212;51.018;13.586;2022-11-15T08:01:26;17.65;;;11.93;;
43154;SDS011;34212;51.018;13.586;2022-11-15T08:06:46;18.60;;;12.38;;
43154;SDS011;34212;51.018;13.586;2022-11-15T08:12:06;22.17;;;12.45;;
43154;SDS011;34212;51.018;13.586;2022-11-15T08:17:27;24.83;;;14.35;;
43154;SDS011;34212;51.018;13.586;2022-11-15T08:22:47;21.23;;;14.20;;
43154;SDS011;34212;51.018;13.586;2022-11-15T08:28:07;25.33;;;14.15;;
43154;SDS011;34212;51.018;13.586;2022-11-15T08:33:30;23.08;;;13.48;;
43154;SDS011;34212;51.018;13.586;2022-11-15T08:38:51;24.40;;;13.30;;
43154;SDS011;34212;51.018;13.586;2022-11-15T08:44:11;25.20;;;15.55;;
43154;SDS011;34212;51.018;13.586;2022-11-15T08:49:31;37.42;;;16.35;;
43154;SDS011;34212;51.018;13.586;2022-11-15T08:54:51;28.08;;;15.00;;
43154;SDS011;34212;51.018;13.586;2022-11-15T09:00:12;29.00;;;15.98;;
43154;SDS011;34212;51.018;13.586;2022-11-15T09:05:35;23.38;;;15.23;;
43154;SDS011;34212;51.018;13.586;2022-11-15T09:10:56;25.98;;;16.35;;
43154;SDS011;34212;51.018;13.586;2022-11-15T09:16:16;23.08;;;14.23;;
43154;SDS011;34212;51.018;13.586;2022-11-15T09:21:36;23.95;;;14.88;;
43154;SDS011;34212;51.018;13.586;2022-11-15T09:26:56;25.25;;;14.55;;
43154;SDS011;34212;51.018;13.586;2022-11-15T09:32:15;23.13;;;14.50;;
43154;SDS011;34212;51.018;13.586;2022-11-15T09:37:35;22.98;;;13.65;;
43154;SDS011;34212;51.018;13.586;2022-11-15T09:42:59;23.25;;;14.95;;
43154;SDS011;34212;51.018;13.586;2022-11-15T09:48:42;22.65;;;15.23;;
43154;SDS011;34212;51.018;13.586;2022-11-15T09:54:28;25.73;;;14.80;;
43154;SDS011;34212;51.018;13.586;2022-11-15T10:05:45;21.63;;;14.82;;
43154;SDS011;34212;51.018;13.586;2022-11-15T10:10:49;21.45;;;13.65;;
43154;SDS011;34212;51.018;13.586;2022-11-15T10:16:38;20.55;;;14.23;;
43154;SDS011;34212;51.018;13.586;2022-11-15T10:27:16;20.17;;;13.15;;
43154;SDS011;34212;51.018;13.586;2022-11-15T10:32:20;22.05;;;13.02;;
43154;SDS011;34212;51.018;13.586;2022-11-15T10:37:29;19.38;;;13.65;;
43154;SDS011;34212;51.018;13.586;2022-11-15T10:42:32;20.30;;;13.90;;
43154;SDS011;34212;51.018;13.586;2022-11-15T10:47:33;19.63;;;14.98;;
43154;SDS011;34212;51.018;13.586;2022-11-15T10:52:43;22.15;;;14.90;;
43154;SDS011;34212;51.018;13.586;2022-11-15T10:57:50;27.02;;;18.55;;
43154;SDS011;34212;51.018;13.586;2022-11-15T11:02:58;28.75;;;18.70;;
43154;SDS011;34212;51.018;13.586;2022-11-15T11:13:31;30.15;;;19.45;;
43154;SDS011;34212;51.018;13.586;2022-11-15T11:18:34;35.80;;;19.85;;
43154;SDS011;34212;51.018;13.586;2022-11-15T11:29:01;29.42;;;19.73;;
43154;SDS011;34212;51.018;13.586;2022-11-15T11:50:14;24.58;;;16.83;;
43154;SDS011;34212;51.018;13.586;2022-11-15T11:55:37;27.35;;;16.60;;
43154;SDS011;34212;51.018;13.586;2022-11-15T12:00:44;26.45;;;17.80;;
43154;SDS011;34212;51.018;13.586;2022-11-15T12:11:02;30.20;;;17.73;;
43154;SDS011;34212;51.018;13.586;2022-11-15T12:21:32;28.48;;;18.40;;
43154;SDS011;34212;51.018;13.586;2022-11-15T12:26:40;28.90;;;17.80;;
43154;SDS011;34212;51.018;13.586;2022-11-15T12:31:50;29.15;;;19.75;;
43154;SDS011;34212;51.018;13.586;2022-11-15T12:36:56;26.48;;;17.27;;
43154;SDS011;34212;51.018;13.586;2022-11-15T12:52:10;28.40;;;18.33;;
43154;SDS011;34212;51.018;13.586;2022-11-15T13:02:17;24.67;;;16.58;;
43154;SDS011;34212;51.018;13.586;2022-11-15T13:17:48;24.55;;;16.70;;
43154;SDS011;34212;51.018;13.586;2022-11-15T13:23:13;22.80;;;15.40;;
43154;SDS011;34212;51.018;13.586;2022-11-15T13:33:23;22.50;;;14.95;;
43154;SDS011;34212;51.018;13.586;2022-11-15T13:38:37;23.33;;;15.88;;
43154;SDS011;34212;51.018;13.586;2022-11-15T13:43:40;24.90;;;16.25;;
43154;SDS011;34212;51.018;13.586;2022-11-15T13:48:41;24.27;;;16.80;;
43154;SDS011;34212;51.018;13.586;2022-11-15T13:53:46;27.42;;;16.63;;
43154;SDS011;34212;51.018;13.586;2022-11-15T13:58:51;24.48;;;15.38;;
43154;SDS011;34212;51.018;13.586;2022-11-15T14:03:56;25.05;;;16.67;;
43154;SDS011;34212;51.018;13.586;2022-11-15T14:14:12;25.60;;;16.70;;
43154;SDS011;34212;51.018;13.586;2022-11-15T14:24:21;28.63;;;18.05;;
43154;SDS011;34212;51.018;13.586;2022-11-15T14:34:25;27.13;;;16.60;;
43154;SDS011;34212;51.018;13.586;2022-11-15T14:39:26;24.70;;;16.25;;
43154;SDS011;34212;51.018;13.586;2022-11-15T14:44:27;25.70;;;16.23;;
43154;SDS011;34212;51.018;13.586;2022-11-15T14:49:29;22.85;;;15.90;;
43154;SDS011;34212;51.018;13.586;2022-11-15T14:54:30;24.65;;;16.92;;
43154;SDS011;34212;51.018;13.586;2022-11-15T14:59:32;23.88;;;15.27;;
43154;SDS011;34212;51.018;13.586;2022-11-15T15:04:33;23.50;;;15.40;;
43154;SDS011;34212;51.018;13.586;2022-11-15T15:09:34;23.33;;;15.55;;
43154;SDS011;34212;51.018;13.586;2022-11-15T15:14:36;26.15;;;15.85;;
43154;SDS011;34212;51.018;13.586;2022-11-15T15:19:37;29.25;;;17.50;;
43154;SDS011;34212;51.018;13.586;2022-11-15T15:24:39;28.27;;;16.40;;
43154;SDS011;34212;51.018;13.586;2022-11-15T15:29:40;29.08;;;16.35;;
43154;SDS011;34212;51.018;13.586;2022-11-15T15:34:42;23.85;;;15.23;;
43154;SDS011;34212;51.018;13.586;2022-11-15T15:39:43;29.38;;;16.45;;
43154;SDS011;34212;51.018;13.586;2022-11-15T15:44:45;26.00;;;16.25;;
43154;SDS011;34212;51.018;13.586;2022-11-15T15:49:47;24.30;;;15.80;;
43154;SDS011;34212;51.018;13.586;2022-11-15T15:54:50;23.17;;;15.50;;
43154;SDS011;34212;51.018;13.586;2022-11-15T15:59:51;24.00;;;15.43;;
43154;SDS011;34212;51.018;13.586;2022-11-15T16:04:52;24.63;;;14.98;;
43154;SDS011;34212;51.018;13.586;2022-11-15T16:09:54;25.77;;;16.20;;
43154;SDS011;34212;51.018;13.586;2022-11-15T16:15:02;24.77;;;15.98;;
43154;SDS011;34212;51.018;13.586;2022-11-15T16:20:04;24.10;;;15.25;;
43154;SDS011;34212;51.018;13.586;2022-11-15T16:25:06;22.73;;;14.63;;
43154;SDS011;34212;51.018;13.586;2022-11-15T16:30:10;25.48;;;15.65;;
43154;SDS011;34212;51.018;13.586;2022-11-15T16:35:16;22.85;;;13.90;;
43154;SDS011;34212;51.018;13.586;2022-11-15T16:40:28;22.63;;;14.57;;
43154;SDS011;34212;51.018;13.586;2022-11-15T16:45:33;24.65;;;15.65;;
43154;SDS011;34212;51.018;13.586;2022-11-15T16:50:35;22.27;;;14.68;;
43154;SDS011;34212;51.018;13.586;2022-11-15T16:55:43;21.35;;;14.50;;
43154;SDS011;34212;51.018;13.586;2022-11-15T17:00:44;24.50;;;14.13;;
43154;SDS011;34212;51.018;13.586;2022-11-15T17:05:46;25.13;;;14.52;;
43154;SDS011;34212;51.018;13.586;2022-11-15T17:10:51;26.33;;;15.15;;
43154;SDS011;34212;51.018;13.586;2022-11-15T17:16:10;23.17;;;14.80;;
43154;SDS011;34212;51.018;13.586;2022-11-15T17:21:16;25.27;;;15.27;;
43154;SDS011;34212;51.018;13.586;2022-11-15T17:27:00;22.70;;;14.13;;
43154;SDS011;34212;51.018;13.586;2022-11-15T18:07:01;23.95;;;14.05;;
43154;SDS011;34212;51.018;13.586;2022-11-15T18:12:05;21.58;;;14.65;;
43154;SDS011;34212;51.018;13.586;2022-11-15T18:17:07;20.80;;;14.60;;
43154;SDS011;34212;51.018;13.586;2022-11-15T18:22:08;26.67;;;15.63;;
43154;SDS011;34212;51.018;13.586;2022-11-15T18:27:10;26.10;;;14.95;;
43154;SDS011;34212;51.018;13.586;2022-11-15T18:32:11;23.30;;;15.15;;
43154;SDS011;34212;51.018;13.586;2022-11-15T18:37:15;21.05;;;14.50;;
43154;SDS011;34212;51.018;13.586;2022-11-15T18:42:16;25.58;;;14.65;;
43154;SDS011;34212;51.018;13.586;2022-11-15T18:47:18;24.13;;;14.65;;
43154;SDS011;34212;51.018;13.586;2022-11-15T18:52:19;23.25;;;14.93;;
43154;SDS011;34212;51.018;13.586;2022-11-15T18:57:20;24.02;;;15.30;;
43154;SDS011;34212;51.018;13.586;2022-11-15T19:02:22;24.08;;;16.02;;
43154;SDS011;34212;51.018;13.586;2022-11-15T19:07:24;23.53;;;16.27;;
43154;SDS011;34212;51.018;13.586;2022-11-15T19:12:25;22.83;;;15.05;;
43154;SDS011;34212;51.018;13.586;2022-11-15T19:17:27;26.73;;;16.52;;
43154;SDS011;34212;51.018;13.586;2022-11-15T19:22:28;23.23;;;15.18;;
43154;SDS011;34212;51.018;13.586;2022-11-15T19:27:30;21.67;;;14.70;;
43154;SDS011;34212;51.018;13.586;2022-11-15T19:32:37;22.65;;;14.65;;
43154;SDS011;34212;51.018;13.586;2022-11-15T19:37:38;25.65;;;14.75;;
43154;SDS011;34212;51.018;13.586;2022-11-15T19:42:40;21.63;;;13.85;;
43154;SDS011;34212;51.018;13.586;2022-11-15T19:47:41;27.08;;;14.15;;
43154;SDS011;34212;51.018;13.586;2022-11-15T19:52:42;23.17;;;14.40;;
43154;SDS011;34212;51.018;13.586;2022-11-15T19:57:44;22.10;;;14.07;;
43154;SDS011;34212;51.018;13.586;2022-11-15T20:02:45;20.83;;;13.77;;
43154;SDS011;34212;51.018;13.586;2022-11-15T20:07:50;25.55;;;13.98;;
43154;SDS011;34212;51.018;13.586;2022-11-15T20:12:51;20.45;;;14.25;;
43154;SDS011;34212;51.018;13.586;2022-11-15T20:17:52;21.35;;;13.90;;
43154;SDS011;34212;51.018;13.586;2022-11-15T20:22:54;20.38;;;13.45;;
43154;SDS011;34212;51.018;13.586;2022-11-15T20:27:59;21.02;;;13.68;;
43154;SDS011;34212;51.018;13.586;2022-11-15T20:33:00;21.98;;;13.15;;
43154;SDS011;34212;51.018;13.586;2022-11-15T20:38:01;20.83;;;13.13;;
43154;SDS011;34212;51.018;13.586;2022-11-15T20:43:03;23.35;;;14.38;;
43154;SDS011;34212;51.018;13.586;2022-11-15T20:48:05;19.90;;;13.87;;
43154;SDS011;34212;51.018;13.586;2022-11-15T20:53:06;19.13;;;12.68;;
43154;SDS011;34212;51.018;13.586;2022-11-15T20:58:08;21.20;;;13.13;;
43154;SDS011;34212;51.018;13.586;2022-11-15T21:03:11;19.20;;;12.20;;
43154;SDS011;34212;51.018;13.586;2022-11-15T21:08:14;21.95;;;13.90;;
43154;SDS011;34212;51.018;13.586;2022-11-15T21:13:15;20.73;;;13.20;;
43154;SDS011;34212;51.018;13.586;2022-11-15T21:18:17;19.95;;;11.82;;
43154;SDS011;34212;51.018;13.586;2022-11-15T21:23:18;19.90;;;13.25;;
43154;SDS011;34212;51.018;13.586;2022-11-15T21:28:20;17.58;;;12.40;;
43154;SDS011;34212;51.018;13.586;2022-11-15T21:33:22;19.73;;;11.63;;
43154;SDS011;34212;51.018;13.586;2022-11-15T21:38:24;17.33;;;11.55;;
43154;SDS011;34212;51.018;13.586;2022-11-15T21:43:25;20.52;;;12.13;;
43154;SDS011;34212;51.018;13.586;2022-11-15T21:48:27;17.60;;;11.70;;
43154;SDS011;34212;51.018;13.586;2022-11-15T21:53:30;18.55;;;11.25;;
43154;SDS011;34212;51.018;13.586;2022-11-15T21:58:32;19.23;;;12.00;;
43154;SDS011;34212;51.018;13.586;2022-11-15T22:03:34;19.52;;;11.70;;
43154;SDS011;34212;51.018;13.586;2022-11-15T22:08:36;22.52;;;12.50;;
43154;SDS011;34212;51.018;13.586;2022-11-15T22:13:38;20.45;;;13.60;;
43154;SDS011;34212;51.018;13.586;2022-11-15T22:18:40;21.23;;;13.18;;
43154;SDS011;34212;51.018;13.586;2022-11-15T22:23:41;19.48;;;12.35;;
43154;SDS011;34212;51.018;13.586;2022-11-15T22:28:44;16.42;;;11.35;;
43154;SDS011;34212;51.018;13.586;2022-11-15T22:33:45;18.65;;;11.63;;
43154;SDS011;34212;51.018;13.586;2022-11-15T22:38:47;15.85;;;10.50;;
43154;SDS011;34212;51.018;13.586;2022-11-15T22:43:48;17.75;;;11.05;;
43154;SDS011;34212;51.018;13.586;2022-11-15T22:48:50;17.42;;;10.25;;
43154;SDS011;34212;51.018;13.586;2022-11-15T22:53:51;16.33;;;10.60;;
43154;SDS011;34212;51.018;13.586;2022-11-15T22:58:53;17.75;;;10.43;;
43154;SDS011;34212;51.018;13.586;2022-11-15T23:03:54;14.15;;;9.63;;
43154;SDS011;34212;51.018;13.586;2022-11-15T23:08:56;17.00;;;9.50;;
43154;SDS011;34212;51.018;13.586;2022-11-15T23:13:58;15.43;;;9.32;;
43154;SDS011;34212;51.018;13.586;2022-11-15T23:19:01;15.90;;;9.35;;
43154;SDS011;34212;51.018;13.586;2022-11-15T23:24:05;15.43;;;9.57;;
43154;SDS011;34212;51.018;13.586;2022-11-15T23:29:09;17.95;;;10.82;;
43154;SDS011;34212;51.018;13.586;2022-11-15T23:34:12;20.15;;;12.40;;
43154;SDS011;34212;51.018;13.586;2022-11-15T23:39:20;22.50;;;11.60;;
43154;SDS011;34212;51.018;13.586;2022-11-15T23:44:21;22.40;;;11.27;;
43154;SDS011;34212;51.018;13.586;2022-11-15T23:49:23;23.23;;;12.55;;
43154;SDS011;34212;51.018;13.586;2022-11-15T23:54:25;18.17;;;9.85;;
43154;SDS011;34212;51.018;13.586;2022-11-15T23:59:26;15.02;;;9.32;;
